sensor_id;sensor_type;location;lat;lon;timestamp;pressure;altitude;pressure_sealevel;temperature;humidity
77737;BME280;66903;59.926;30.404;2024-01-16T00:04:58;98116.97;;;22.83;23.31
77737;BME280;66903;59.926;30.404;2024-01-16T00:10:28;98106.38;;;22.84;23.52
77737;BME280;66903;59.926;30.404;2024-01-16T00:15:38;98117.78;;;22.84;23.40
77737;BME280;66903;59.926;30.404;2024-01-16T00:20:52;98125.50;;;22.83;23.23
77737;BME280;66903;59.926;30.404;2024-01-16T00:26:02;98120.28;;;22.85;23.41
77737;BME280;66903;59.926;30.404;2024-01-16T00:31:13;98115.50;;;22.89;23.24
77737;BME280;66903;59.926;30.404;2024-01-16T00:36:24;98116.34;;;22.90;23.33
77737;BME280;66903;59.926;30.404;2024-01-16T00:41:35;98115.03;;;22.87;23.51
77737;BME280;66903;59.926;30.404;2024-01-16T00:46:46;98111.00;;;22.88;23.12
77737;BME280;66903;59.926;30.404;2024-01-16T00:52:15;98104.69;;;22.95;23.15
77737;BME280;66903;59.926;30.404;2024-01-16T00:57:44;98104.22;;;22.93;23.18
77737;BME280;66903;59.926;30.404;2024-01-16T01:02:55;98099.00;;;22.95;23.01
77737;BME280;66903;59.926;30.404;2024-01-16T01:08:06;98101.47;;;22.96;22.98
77737;BME280;66903;59.926;30.404;2024-01-16T01:13:16;98098.28;;;22.98;23.02
77737;BME280;66903;59.926;30.404;2024-01-16T01:18:27;98099.09;;;22.98;23.42
77737;BME280;66903;59.926;30.404;2024-01-16T01:23:38;98097.47;;;22.97;22.83
77737;BME280;66903;59.926;30.404;2024-01-16T01:28:49;98102.31;;;22.97;23.27
77737;BME280;66903;59.926;30.404;2024-01-16T01:33:59;98110.50;;;22.98;22.74
77737;BME280;66903;59.926;30.404;2024-01-16T01:39:29;98109.44;;;23.03;22.95
77737;BME280;66903;59.926;30.404;2024-01-16T01:44:40;98102.78;;;22.99;23.25
77737;BME280;66903;59.926;30.404;2024-01-16T01:49:52;98106.00;;;22.97;23.19
77737;BME280;66903;59.926;30.404;2024-01-16T01:55:03;98106.13;;;23.01;22.69
77737;BME280;66903;59.926;30.404;2024-01-16T02:00:14;98103.63;;;22.99;22.84
77737;BME280;66903;59.926;30.404;2024-01-16T02:05:29;98108.84;;;22.97;22.56
77737;BME280;66903;59.926;30.404;2024-01-16T02:10:40;98103.56;;;23.12;23.00
77737;BME280;66903;59.926;30.404;2024-01-16T02:21:22;98093.53;;;23.02;22.74
77737;BME280;66903;59.926;30.404;2024-01-16T02:26:36;98084.50;;;23.00;22.56
77737;BME280;66903;59.926;30.404;2024-01-16T02:37:16;98080.50;;;23.01;22.84
77737;BME280;66903;59.926;30.404;2024-01-16T02:42:27;98082.59;;;23.04;23.03
77737;BME280;66903;59.926;30.404;2024-01-16T02:53:07;98091.34;;;23.11;23.05
77737;BME280;66903;59.926;30.404;2024-01-16T02:58:18;98094.41;;;23.18;23.02
77737;BME280;66903;59.926;30.404;2024-01-16T03:08:58;98089.75;;;23.26;22.57
77737;BME280;66903;59.926;30.404;2024-01-16T03:14:09;98100.19;;;23.22;22.81
77737;BME280;66903;59.926;30.404;2024-01-16T03:19:19;98100.44;;;23.29;22.80
77737;BME280;66903;59.926;30.404;2024-01-16T03:24:30;98097.78;;;23.36;22.94
77737;BME280;66903;59.926;30.404;2024-01-16T03:29:41;98098.72;;;23.40;22.77
77737;BME280;66903;59.926;30.404;2024-01-16T03:34:52;98099.53;;;23.40;23.01
77737;BME280;66903;59.926;30.404;2024-01-16T03:40:03;98099.91;;;23.39;22.75
77737;BME280;66903;59.926;30.404;2024-01-16T03:45:14;98096.59;;;23.37;22.54
77737;BME280;66903;59.926;30.404;2024-01-16T03:50:25;98096.16;;;23.35;22.71
77737;BME280;66903;59.926;30.404;2024-01-16T03:55:37;98117.72;;;23.36;22.74
77737;BME280;66903;59.926;30.404;2024-01-16T04:00:47;98116.09;;;23.35;22.94
77737;BME280;66903;59.926;30.404;2024-01-16T04:06:01;98112.78;;;23.33;22.88
77737;BME280;66903;59.926;30.404;2024-01-16T04:11:30;98104.59;;;23.31;23.01
77737;BME280;66903;59.926;30.404;2024-01-16T04:22:10;98101.63;;;23.28;22.57
77737;BME280;66903;59.926;30.404;2024-01-16T04:27:21;98096.63;;;23.25;22.69
77737;BME280;66903;59.926;30.404;2024-01-16T04:32:50;98103.63;;;23.27;22.97
77737;BME280;66903;59.926;30.404;2024-01-16T04:38:01;98108.47;;;23.27;23.61
77737;BME280;66903;59.926;30.404;2024-01-16T04:43:13;98093.06;;;23.28;23.13
77737;BME280;66903;59.926;30.404;2024-01-16T04:48:24;98098.53;;;23.33;23.03
77737;BME280;66903;59.926;30.404;2024-01-16T04:53:35;98104.31;;;23.36;23.45
77737;BME280;66903;59.926;30.404;2024-01-16T04:58:45;98102.75;;;23.39;23.47
77737;BME280;66903;59.926;30.404;2024-01-16T05:03:56;98102.06;;;23.42;22.92
77737;BME280;66903;59.926;30.404;2024-01-16T05:14:36;98128.88;;;23.41;23.32
77737;BME280;66903;59.926;30.404;2024-01-16T05:19:47;98134.66;;;23.44;23.24
77737;BME280;66903;59.926;30.404;2024-01-16T05:24:59;98138.44;;;23.48;22.80
77737;BME280;66903;59.926;30.404;2024-01-16T05:30:10;98136.88;;;23.51;22.83
77737;BME280;66903;59.926;30.404;2024-01-16T05:35:21;98134.13;;;23.54;22.34
77737;BME280;66903;59.926;30.404;2024-01-16T05:46:01;98139.88;;;23.42;22.34
77737;BME280;66903;59.926;30.404;2024-01-16T05:51:11;98148.44;;;23.42;22.81
77737;BME280;66903;59.926;30.404;2024-01-16T05:56:22;98155.28;;;23.53;22.82
77737;BME280;66903;59.926;30.404;2024-01-16T06:01:33;98154.38;;;23.65;22.74
77737;BME280;66903;59.926;30.404;2024-01-16T06:07:02;98149.81;;;23.76;22.68
77737;BME280;66903;59.926;30.404;2024-01-16T06:12:32;98148.72;;;23.80;22.67
77737;BME280;66903;59.926;30.404;2024-01-16T06:17:43;98172.06;;;23.86;22.71
77737;BME280;66903;59.926;30.404;2024-01-16T06:22:54;98171.00;;;23.90;22.63
77737;BME280;66903;59.926;30.404;2024-01-16T06:28:24;98180.56;;;23.98;23.33
77737;BME280;66903;59.926;30.404;2024-01-16T06:33:53;98179.38;;;23.99;23.63
77737;BME280;66903;59.926;30.404;2024-01-16T06:39:22;98191.75;;;24.03;22.84
77737;BME280;66903;59.926;30.404;2024-01-16T06:44:52;98190.25;;;24.09;22.85
77737;BME280;66903;59.926;30.404;2024-01-16T06:50:03;98197.63;;;24.10;22.94
77737;BME280;66903;59.926;30.404;2024-01-16T06:55:14;98189.88;;;24.10;22.70
77737;BME280;66903;59.926;30.404;2024-01-16T07:00:25;98206.63;;;24.12;22.85
77737;BME280;66903;59.926;30.404;2024-01-16T07:05:37;98203.78;;;24.12;22.39
77737;BME280;66903;59.926;30.404;2024-01-16T07:11:06;98212.34;;;24.12;22.58
77737;BME280;66903;59.926;30.404;2024-01-16T07:16:19;98213.56;;;24.27;22.83
77737;BME280;66903;59.926;30.404;2024-01-16T07:21:29;98218.97;;;24.16;22.26
77737;BME280;66903;59.926;30.404;2024-01-16T07:26:40;98222.56;;;24.13;22.53
77737;BME280;66903;59.926;30.404;2024-01-16T07:37:21;98227.91;;;24.15;21.92
77737;BME280;66903;59.926;30.404;2024-01-16T07:42:32;98232.41;;;24.16;22.32
77737;BME280;66903;59.926;30.404;2024-01-16T07:47:45;98237.28;;;24.15;22.10
77737;BME280;66903;59.926;30.404;2024-01-16T07:53:14;98259.75;;;24.17;21.75
77737;BME280;66903;59.926;30.404;2024-01-16T07:58:25;98252.03;;;24.17;22.03
77737;BME280;66903;59.926;30.404;2024-01-16T08:03:36;98257.72;;;24.17;22.11
77737;BME280;66903;59.926;30.404;2024-01-16T08:08:47;98265.91;;;24.19;21.78
77737;BME280;66903;59.926;30.404;2024-01-16T08:13:59;98268.03;;;24.22;21.76
77737;BME280;66903;59.926;30.404;2024-01-16T08:19:09;98273.38;;;24.23;21.92
77737;BME280;66903;59.926;30.404;2024-01-16T08:24:39;98280.84;;;24.28;22.10
77737;BME280;66903;59.926;30.404;2024-01-16T08:29:49;98282.03;;;24.27;21.77
77737;BME280;66903;59.926;30.404;2024-01-16T08:35:00;98282.03;;;24.27;21.60
77737;BME280;66903;59.926;30.404;2024-01-16T08:40:11;98296.38;;;24.30;21.63
77737;BME280;66903;59.926;30.404;2024-01-16T08:45:22;98291.50;;;24.31;21.50
77737;BME280;66903;59.926;30.404;2024-01-16T08:50:33;98309.47;;;24.31;21.75
77737;BME280;66903;59.926;30.404;2024-01-16T08:55:44;98315.19;;;24.31;21.71
77737;BME280;66903;59.926;30.404;2024-01-16T09:01:13;98321.31;;;24.33;21.58
77737;BME280;66903;59.926;30.404;2024-01-16T09:06:24;98316.25;;;24.27;21.33
77737;BME280;66903;59.926;30.404;2024-01-16T09:17:04;98330.16;;;24.28;21.50
77737;BME280;66903;59.926;30.404;2024-01-16T09:22:15;98331.34;;;24.27;21.57
77737;BME280;66903;59.926;30.404;2024-01-16T09:27:26;98345.63;;;24.27;21.16
77737;BME280;66903;59.926;30.404;2024-01-16T09:32:37;98342.41;;;24.29;21.15
77737;BME280;66903;59.926;30.404;2024-01-16T09:37:48;98360.00;;;24.31;21.39
77737;BME280;66903;59.926;30.404;2024-01-16T09:42:59;98369.03;;;24.33;21.32
77737;BME280;66903;59.926;30.404;2024-01-16T09:48:10;98365.34;;;24.32;21.18
77737;BME280;66903;59.926;30.404;2024-01-16T09:53:22;98369.13;;;24.36;21.45
77737;BME280;66903;59.926;30.404;2024-01-16T09:58:34;98365.53;;;24.39;21.51
77737;BME280;66903;59.926;30.404;2024-01-16T10:03:47;98373.72;;;24.41;21.75
77737;BME280;66903;59.926;30.404;2024-01-16T10:09:16;98375.50;;;24.45;21.56
77737;BME280;66903;59.926;30.404;2024-01-16T10:14:27;98387.47;;;24.51;21.76
77737;BME280;66903;59.926;30.404;2024-01-16T10:19:57;98401.94;;;24.58;21.68
77737;BME280;66903;59.926;30.404;2024-01-16T10:25:14;98408.47;;;24.58;21.47
77737;BME280;66903;59.926;30.404;2024-01-16T10:30:30;98407.31;;;24.59;21.51
77737;BME280;66903;59.926;30.404;2024-01-16T10:36:13;98424.53;;;24.63;21.78
77737;BME280;66903;59.926;30.404;2024-01-16T10:41:24;98426.34;;;24.55;21.98
77737;BME280;66903;59.926;30.404;2024-01-16T10:46:37;98434.66;;;24.60;21.75
77737;BME280;66903;59.926;30.404;2024-01-16T10:51:49;98437.97;;;24.62;22.01
77737;BME280;66903;59.926;30.404;2024-01-16T10:57:03;98448.66;;;24.65;22.26
77737;BME280;66903;59.926;30.404;2024-01-16T11:02:15;98442.00;;;24.73;22.31
77737;BME280;66903;59.926;30.404;2024-01-16T11:13:01;98460.59;;;24.83;21.92
77737;BME280;66903;59.926;30.404;2024-01-16T11:20:31;98475.31;;;24.69;22.06
77737;BME280;66903;59.926;30.404;2024-01-16T11:25:42;98465.53;;;24.70;22.18
77737;BME280;66903;59.926;30.404;2024-01-16T11:30:53;98477.56;;;24.36;22.19
77737;BME280;66903;59.926;30.404;2024-01-16T11:36:04;98485.06;;;24.29;21.79
77737;BME280;66903;59.926;30.404;2024-01-16T11:41:52;98497.22;;;24.26;21.89
77737;BME280;66903;59.926;30.404;2024-01-16T11:47:04;98513.25;;;24.18;21.83
77737;BME280;66903;59.926;30.404;2024-01-16T11:52:41;98513.97;;;24.27;21.60
77737;BME280;66903;59.926;30.404;2024-01-16T11:58:45;98521.06;;;24.33;21.82
77737;BME280;66903;59.926;30.404;2024-01-16T12:04:05;98536.88;;;24.43;22.01
77737;BME280;66903;59.926;30.404;2024-01-16T12:09:17;98530.69;;;24.41;21.66
77737;BME280;66903;59.926;30.404;2024-01-16T12:20:18;98545.47;;;23.82;21.48
77737;BME280;66903;59.926;30.404;2024-01-16T12:25:52;98563.88;;;23.85;22.14
77737;BME280;66903;59.926;30.404;2024-01-16T12:36:34;98577.00;;;23.08;22.18
77737;BME280;66903;59.926;30.404;2024-01-16T12:41:46;98590.47;;;23.65;21.97
77737;BME280;66903;59.926;30.404;2024-01-16T12:46:57;98593.34;;;23.77;21.61
77737;BME280;66903;59.926;30.404;2024-01-16T12:52:18;98593.59;;;23.84;21.55
77737;BME280;66903;59.926;30.404;2024-01-16T12:57:30;98612.13;;;23.90;21.87
77737;BME280;66903;59.926;30.404;2024-01-16T13:02:41;98618.78;;;23.94;21.55
77737;BME280;66903;59.926;30.404;2024-01-16T13:08:02;98627.09;;;23.87;21.36
77737;BME280;66903;59.926;30.404;2024-01-16T13:13:14;98634.69;;;23.83;21.15
77737;BME280;66903;59.926;30.404;2024-01-16T13:18:27;98646.44;;;23.81;21.68
77737;BME280;66903;59.926;30.404;2024-01-16T13:23:38;98632.69;;;23.83;21.38
77737;BME280;66903;59.926;30.404;2024-01-16T13:29:25;98640.63;;;23.90;21.54
77737;BME280;66903;59.926;30.404;2024-01-16T13:40:06;98658.09;;;23.88;21.67
77737;BME280;66903;59.926;30.404;2024-01-16T13:45:26;98661.31;;;23.87;21.37
77737;BME280;66903;59.926;30.404;2024-01-16T13:50:37;98661.31;;;23.87;21.27
77737;BME280;66903;59.926;30.404;2024-01-16T13:55:47;98671.03;;;23.86;21.77
77737;BME280;66903;59.926;30.404;2024-01-16T14:00:58;98689.94;;;23.78;21.34
77737;BME280;66903;59.926;30.404;2024-01-16T14:06:28;98694.16;;;23.60;21.78
77737;BME280;66903;59.926;30.404;2024-01-16T14:11:39;98699.25;;;23.14;21.44
77737;BME280;66903;59.926;30.404;2024-01-16T14:16:52;98702.56;;;22.74;22.10
77737;BME280;66903;59.926;30.404;2024-01-16T14:22:05;98715.97;;;22.45;21.89
77737;BME280;66903;59.926;30.404;2024-01-16T14:27:16;98723.09;;;22.22;22.05
77737;BME280;66903;59.926;30.404;2024-01-16T14:32:26;98723.09;;;22.22;22.22
77737;BME280;66903;59.926;30.404;2024-01-16T14:37:37;98727.19;;;22.41;21.81
77737;BME280;66903;59.926;30.404;2024-01-16T14:42:48;98734.44;;;22.68;21.91
77737;BME280;66903;59.926;30.404;2024-01-16T14:47:59;98752.03;;;22.90;21.70
77737;BME280;66903;59.926;30.404;2024-01-16T14:53:10;98771.84;;;23.08;21.35
77737;BME280;66903;59.926;30.404;2024-01-16T14:58:40;98775.03;;;23.27;21.91
77737;BME280;66903;59.926;30.404;2024-01-16T15:03:50;98780.06;;;23.30;21.53
77737;BME280;66903;59.926;30.404;2024-01-16T15:09:01;98791.28;;;23.26;21.78
77737;BME280;66903;59.926;30.404;2024-01-16T15:14:12;98789.63;;;23.25;22.20
77737;BME280;66903;59.926;30.404;2024-01-16T15:19:23;98811.44;;;23.21;21.96
77737;BME280;66903;59.926;30.404;2024-01-16T15:24:34;98817.53;;;22.90;22.17
77737;BME280;66903;59.926;30.404;2024-01-16T15:29:45;98826.38;;;22.60;22.10
77737;BME280;66903;59.926;30.404;2024-01-16T15:34:56;98836.47;;;22.32;22.63
77737;BME280;66903;59.926;30.404;2024-01-16T15:40:07;98843.56;;;22.09;22.86
77737;BME280;66903;59.926;30.404;2024-01-16T15:45:18;98847.97;;;21.89;23.07
77737;BME280;66903;59.926;30.404;2024-01-16T15:50:29;98861.31;;;21.71;24.19
77737;BME280;66903;59.926;30.404;2024-01-16T15:55:42;98870.53;;;21.85;23.11
77737;BME280;66903;59.926;30.404;2024-01-16T16:00:53;98872.34;;;21.73;25.28
77737;BME280;66903;59.926;30.404;2024-01-16T16:06:04;98879.88;;;21.69;25.59
77737;BME280;66903;59.926;30.404;2024-01-16T16:11:15;98883.72;;;21.64;25.69
77737;BME280;66903;59.926;30.404;2024-01-16T16:16:26;98885.56;;;21.60;25.63
77737;BME280;66903;59.926;30.404;2024-01-16T16:21:37;98895.91;;;21.56;25.37
77737;BME280;66903;59.926;30.404;2024-01-16T16:26:48;98900.25;;;21.54;25.21
77737;BME280;66903;59.926;30.404;2024-01-16T16:31:58;98903.56;;;21.47;25.29
77737;BME280;66903;59.926;30.404;2024-01-16T16:37:09;98916.97;;;21.47;25.39
77737;BME280;66903;59.926;30.404;2024-01-16T16:42:20;98920.94;;;21.46;25.29
77737;BME280;66903;59.926;30.404;2024-01-16T16:47:31;98925.16;;;21.48;24.93
77737;BME280;66903;59.926;30.404;2024-01-16T16:52:42;98929.66;;;21.49;25.22
77737;BME280;66903;59.926;30.404;2024-01-16T16:57:52;98945.69;;;21.45;24.89
77737;BME280;66903;59.926;30.404;2024-01-16T17:03:03;98953.53;;;21.40;24.89
77737;BME280;66903;59.926;30.404;2024-01-16T17:08:33;98956.56;;;21.43;24.60
77737;BME280;66903;59.926;30.404;2024-01-16T17:13:44;98964.38;;;21.38;25.71
77737;BME280;66903;59.926;30.404;2024-01-16T17:18:58;98967.41;;;21.41;26.15
77737;BME280;66903;59.926;30.404;2024-01-16T17:24:09;98986.44;;;21.41;26.59
77737;BME280;66903;59.926;30.404;2024-01-16T17:29:20;98989.47;;;21.44;27.35
77737;BME280;66903;59.926;30.404;2024-01-16T17:34:31;98981.63;;;21.50;27.02
77737;BME280;66903;59.926;30.404;2024-01-16T17:39:42;98993.84;;;21.50;26.56
77737;BME280;66903;59.926;30.404;2024-01-16T17:44:53;98996.50;;;21.47;25.60
77737;BME280;66903;59.926;30.404;2024-01-16T17:50:09;99004.50;;;21.45;25.25
77737;BME280;66903;59.926;30.404;2024-01-16T17:55:21;99006.34;;;21.41;25.17
77737;BME280;66903;59.926;30.404;2024-01-16T18:00:33;99016.34;;;21.38;25.13
77737;BME280;66903;59.926;30.404;2024-01-16T18:05:44;99032.91;;;21.36;24.81
77737;BME280;66903;59.926;30.404;2024-01-16T18:10:55;99038.69;;;21.31;24.64
77737;BME280;66903;59.926;30.404;2024-01-16T18:16:05;99035.44;;;21.46;24.41
77737;BME280;66903;59.926;30.404;2024-01-16T18:21:17;99053.91;;;21.74;24.30
77737;BME280;66903;59.926;30.404;2024-01-16T18:26:28;99064.34;;;21.96;23.86
77737;BME280;66903;59.926;30.404;2024-01-16T18:31:39;99077.25;;;22.11;23.68
77737;BME280;66903;59.926;30.404;2024-01-16T18:36:52;99094.31;;;22.19;23.52
77737;BME280;66903;59.926;30.404;2024-01-16T18:42:04;99101.88;;;22.24;23.88
77737;BME280;66903;59.926;30.404;2024-01-16T18:47:15;99108.56;;;22.28;24.53
77737;BME280;66903;59.926;30.404;2024-01-16T18:52:30;99128.50;;;22.36;25.27
77737;BME280;66903;59.926;30.404;2024-01-16T18:57:42;99139.56;;;22.46;24.96
77737;BME280;66903;59.926;30.404;2024-01-16T19:02:53;99151.13;;;22.58;24.74
77737;BME280;66903;59.926;30.404;2024-01-16T19:08:06;99158.19;;;22.69;25.08
77737;BME280;66903;59.926;30.404;2024-01-16T19:18:49;99175.09;;;22.83;24.55
77737;BME280;66903;59.926;30.404;2024-01-16T19:24:00;99184.47;;;22.83;24.35
77737;BME280;66903;59.926;30.404;2024-01-16T19:29:11;99191.66;;;22.81;24.24
77737;BME280;66903;59.926;30.404;2024-01-16T19:34:22;99199.53;;;22.75;23.78
77737;BME280;66903;59.926;30.404;2024-01-16T19:39:32;99207.03;;;22.63;23.75
77737;BME280;66903;59.926;30.404;2024-01-16T19:44:47;99216.88;;;22.48;23.61
77737;BME280;66903;59.926;30.404;2024-01-16T19:49:58;99224.22;;;22.41;23.78
77737;BME280;66903;59.926;30.404;2024-01-16T19:55:09;99226.41;;;22.44;23.20
77737;BME280;66903;59.926;30.404;2024-01-16T20:00:20;99233.94;;;22.40;23.17
77737;BME280;66903;59.926;30.404;2024-01-16T20:05:33;99242.31;;;22.45;22.97
77737;BME280;66903;59.926;30.404;2024-01-16T20:10:45;99258.44;;;22.58;22.72
77737;BME280;66903;59.926;30.404;2024-01-16T20:15:56;99259.31;;;22.67;22.42
77737;BME280;66903;59.926;30.404;2024-01-16T20:21:07;99269.72;;;22.71;22.38
77737;BME280;66903;59.926;30.404;2024-01-16T20:26:20;99273.72;;;22.70;24.33
77737;BME280;66903;59.926;30.404;2024-01-16T20:31:31;99286.28;;;22.69;24.24
77737;BME280;66903;59.926;30.404;2024-01-16T20:36:44;99287.25;;;22.65;24.79
77737;BME280;66903;59.926;30.404;2024-01-16T20:42:00;99301.97;;;22.58;25.50
77737;BME280;66903;59.926;30.404;2024-01-16T20:47:11;99310.78;;;22.48;25.79
77737;BME280;66903;59.926;30.404;2024-01-16T20:52:22;99320.63;;;22.42;26.67
77737;BME280;66903;59.926;30.404;2024-01-16T20:57:33;99341.34;;;22.34;26.74
77737;BME280;66903;59.926;30.404;2024-01-16T21:02:45;99336.44;;;22.26;26.63
77737;BME280;66903;59.926;30.404;2024-01-16T21:07:56;99340.94;;;22.19;26.45
77737;BME280;66903;59.926;30.404;2024-01-16T21:13:25;99359.31;;;22.13;26.06
77737;BME280;66903;59.926;30.404;2024-01-16T21:18:57;99364.47;;;22.11;25.81
77737;BME280;66903;59.926;30.404;2024-01-16T21:24:07;99369.06;;;21.98;27.08
77737;BME280;66903;59.926;30.404;2024-01-16T21:29:19;99376.81;;;21.84;27.91
77737;BME280;66903;59.926;30.404;2024-01-16T21:34:48;99395.28;;;21.73;27.86
77737;BME280;66903;59.926;30.404;2024-01-16T21:39:59;99399.66;;;21.57;28.79
77737;BME280;66903;59.926;30.404;2024-01-16T21:45:09;99402.44;;;21.48;27.50
77737;BME280;66903;59.926;30.404;2024-01-16T21:50:21;99409.78;;;21.49;26.76
77737;BME280;66903;59.926;30.404;2024-01-16T21:55:32;99425.69;;;21.50;26.56
77737;BME280;66903;59.926;30.404;2024-01-16T22:00:43;99410.31;;;21.51;26.22
77737;BME280;66903;59.926;30.404;2024-01-16T22:05:54;99422.50;;;21.52;25.97
77737;BME280;66903;59.926;30.404;2024-01-16T22:11:07;99444.41;;;21.51;25.78
77737;BME280;66903;59.926;30.404;2024-01-16T22:16:18;99449.22;;;21.51;25.79
77737;BME280;66903;59.926;30.404;2024-01-16T22:21:48;99446.06;;;21.52;25.69
77737;BME280;66903;59.926;30.404;2024-01-16T22:26:59;99447.88;;;21.48;25.58
77737;BME280;66903;59.926;30.404;2024-01-16T22:32:11;99467.25;;;21.46;25.51
77737;BME280;66903;59.926;30.404;2024-01-16T22:37:40;99473.25;;;21.45;25.08
77737;BME280;66903;59.926;30.404;2024-01-16T22:42:54;99487.44;;;21.45;25.14
77737;BME280;66903;59.926;30.404;2024-01-16T22:48:05;99501.97;;;21.43;25.14
77737;BME280;66903;59.926;30.404;2024-01-16T22:53:21;99509.66;;;21.43;25.08
77737;BME280;66903;59.926;30.404;2024-01-16T22:58:32;99511.13;;;21.40;24.80
77737;BME280;66903;59.926;30.404;2024-01-16T23:03:43;99529.34;;;21.39;24.92
77737;BME280;66903;59.926;30.404;2024-01-16T23:08:57;99548.06;;;21.40;25.01
77737;BME280;66903;59.926;30.404;2024-01-16T23:14:09;99554.06;;;21.39;24.84
77737;BME280;66903;59.926;30.404;2024-01-16T23:19:21;99556.88;;;21.39;24.63
77737;BME280;66903;59.926;30.404;2024-01-16T23:24:32;99562.56;;;21.39;24.55
77737;BME280;66903;59.926;30.404;2024-01-16T23:29:43;99564.56;;;21.38;24.64
77737;BME280;66903;59.926;30.404;2024-01-16T23:34:54;99579.09;;;21.37;24.46
77737;BME280;66903;59.926;30.404;2024-01-16T23:40:05;99589.91;;;21.35;24.26
77737;BME280;66903;59.926;30.404;2024-01-16T23:50:48;99599.41;;;21.30;23.97
77737;BME280;66903;59.926;30.404;2024-01-16T23:55:59;99603.69;;;21.28;24.22
